createdAt,value
2023-05-15T00:04:38.183Z,9.10
2023-05-15T00:09:41.508Z,8.60
2023-05-15T00:14:46.574Z,8.30
2023-05-15T00:19:49.997Z,7.80
2023-05-15T00:24:53.987Z,7.50
2023-05-15T00:29:58.646Z,8.43
2023-05-15T00:35:01.998Z,8.35
2023-05-15T00:40:10.916Z,7.78
2023-05-15T00:45:16.616Z,8.90
2023-05-15T00:50:21.125Z,7.97
2023-05-15T00:55:26.790Z,7.97
2023-05-15T01:00:34.580Z,7.32
2023-05-15T01:05:38.242Z,8.15
2023-05-15T01:10:45.611Z,8.18
2023-05-15T01:15:50.784Z,8.65
2023-05-15T01:21:18.228Z,7.65
2023-05-15T01:26:58.530Z,8.52
2023-05-15T01:32:07.038Z,8.27
2023-05-15T01:37:14.108Z,8.30
2023-05-15T01:42:19.538Z,7.93
2023-05-15T01:47:31.821Z,8.63
2023-05-15T01:52:38.892Z,8.57
2023-05-15T01:57:43.319Z,8.38
2023-05-15T02:02:50.216Z,8.98
2023-05-15T02:07:55.769Z,8.82
2023-05-15T02:13:01.077Z,8.77
2023-05-15T02:18:06.484Z,8.23
2023-05-15T02:23:09.893Z,8.30
2023-05-15T02:28:21.289Z,9.32
2023-05-15T02:33:31.719Z,9.77
2023-05-15T02:38:40.962Z,10.00
2023-05-15T02:43:45.709Z,9.05
2023-05-15T02:48:51.732Z,9.00
2023-05-15T02:53:56.376Z,9.15
2023-05-15T02:58:59.896Z,10.35
2023-05-15T03:04:04.987Z,10.68
2023-05-15T03:09:08.520Z,9.55
2023-05-15T03:14:14.079Z,11.63
2023-05-15T03:19:18.966Z,10.35
2023-05-15T03:24:22.314Z,10.07
2023-05-15T03:29:26.519Z,10.30
2023-05-15T03:34:31.370Z,9.73
2023-05-15T03:39:34.754Z,9.80
2023-05-15T03:44:38.515Z,9.98
2023-05-15T03:49:43.950Z,10.38
2023-05-15T03:54:47.479Z,10.27
2023-05-15T03:59:50.874Z,10.88
2023-05-15T04:04:55.935Z,10.68
2023-05-15T04:10:01.586Z,9.93
2023-05-15T04:15:15.787Z,11.20
2023-05-15T04:20:22.711Z,11.23
2023-05-15T04:25:28.049Z,9.90
2023-05-15T04:30:31.683Z,10.77
2023-05-15T04:35:36.316Z,10.45
2023-05-15T04:40:40.144Z,10.25
2023-05-15T04:45:43.529Z,9.98
2023-05-15T04:50:48.134Z,10.63
2023-05-15T04:55:51.645Z,9.23
2023-05-15T05:00:55.551Z,9.50
2023-05-15T05:06:00.392Z,8.90
2023-05-15T05:11:04.686Z,7.43
2023-05-15T05:16:08.235Z,6.93
2023-05-15T05:21:13.149Z,6.72
2023-05-15T05:26:16.829Z,6.97
2023-05-15T05:31:20.629Z,6.57
2023-05-15T05:36:25.628Z,7.53
2023-05-15T05:46:32.583Z,6.88
2023-05-15T05:51:37.471Z,6.80
2023-05-15T05:56:41.521Z,6.13
2023-05-15T06:01:45.090Z,6.27
2023-05-15T06:06:50.224Z,5.93
2023-05-15T06:11:53.701Z,5.65
2023-05-15T06:16:57.462Z,5.93
2023-05-15T06:22:02.182Z,6.00
2023-05-15T06:32:09.542Z,6.35
2023-05-15T06:37:14.464Z,6.15
2023-05-15T06:47:22.860Z,5.97
2023-05-15T06:52:28.634Z,6.13
2023-05-15T06:57:33.745Z,5.65
2023-05-15T07:02:37.155Z,5.68
2023-05-15T07:07:43.012Z,6.18
2023-05-15T07:12:47.149Z,5.35
2023-05-15T07:17:51.735Z,5.90
2023-05-15T07:22:57.339Z,5.57
2023-05-15T07:28:00.682Z,5.57
2023-05-15T07:33:04.340Z,5.63
2023-05-15T07:38:09.907Z,6.63
2023-05-15T07:43:13.483Z,5.70
2023-05-15T07:48:18.887Z,5.13
2023-05-15T07:53:23.767Z,5.32
2023-05-15T07:58:29.172Z,4.45
2023-05-15T08:03:33.947Z,5.30
2023-05-15T08:08:39.307Z,4.90
2023-05-15T08:13:42.777Z,4.97
2023-05-15T08:18:47.137Z,5.38
2023-05-15T08:23:53.770Z,4.90
2023-05-15T08:28:57.388Z,4.97
2023-05-15T08:34:01.253Z,5.07
2023-05-15T08:39:06.130Z,4.63
2023-05-15T08:44:11.297Z,5.53
2023-05-15T08:49:25.266Z,5.63
2023-05-15T08:54:31.047Z,4.55
2023-05-15T08:59:35.006Z,4.32
2023-05-15T09:04:38.411Z,4.15
2023-05-15T09:09:45.248Z,4.03
2023-05-15T09:14:48.772Z,5.07
2023-05-15T09:19:52.572Z,4.17
2023-05-15T09:24:58.213Z,3.85
2023-05-15T09:30:10.175Z,4.38
2023-05-15T09:35:29.996Z,4.75
2023-05-15T09:40:35.894Z,3.75
2023-05-15T09:45:39.332Z,3.97
2023-05-15T09:50:42.957Z,3.75
2023-05-15T09:55:48.592Z,3.42
2023-05-15T10:00:51.976Z,4.60
2023-05-15T10:06:01.081Z,4.10
2023-05-15T10:11:07.091Z,3.78
2023-05-15T10:16:11.199Z,3.72
2023-05-15T10:21:18.346Z,4.32
2023-05-15T10:26:27.292Z,4.38
2023-05-15T10:31:31.813Z,4.10
2023-05-15T10:36:36.836Z,4.20
2023-05-15T10:41:42.801Z,4.07
2023-05-15T10:46:47.730Z,4.22
2023-05-15T10:51:53.216Z,4.15
2023-05-15T10:56:58.459Z,3.78
2023-05-15T11:02:21.228Z,3.53
2023-05-15T11:07:25.853Z,3.90
2023-05-15T11:12:55.622Z,4.15
2023-05-15T11:18:03.477Z,4.18
2023-05-15T11:23:07.772Z,4.20
2023-05-15T11:28:23.169Z,4.40
2023-05-15T11:33:30.353Z,4.43
2023-05-15T11:38:39.874Z,4.30
2023-05-15T11:43:45.813Z,4.05
2023-05-15T11:48:50.748Z,4.05
2023-05-15T11:53:56.754Z,3.45
2023-05-15T11:59:02.486Z,3.80
2023-05-15T12:04:12.921Z,4.18
2023-05-15T12:09:19.138Z,4.20
2023-05-15T12:14:28.932Z,3.75
2023-05-15T12:19:33.424Z,3.28
2023-05-15T12:24:39.781Z,3.60
2023-05-15T12:29:45.146Z,2.67
2023-05-15T12:34:49.520Z,2.50
2023-05-15T12:39:54.814Z,2.33
2023-05-15T12:45:00.471Z,2.00
2023-05-15T12:50:13.049Z,1.65
2023-05-15T12:55:17.397Z,2.25
2023-05-15T13:00:23.211Z,1.90
2023-05-15T13:05:27.440Z,2.00
2023-05-15T13:10:33.027Z,1.77
2023-05-15T13:15:39.401Z,2.40
2023-05-15T13:20:45.187Z,2.13
2023-05-15T13:25:48.470Z,2.28
2023-05-15T13:30:53.624Z,2.33
2023-05-15T13:41:18.410Z,2.10
2023-05-15T13:46:24.482Z,2.10
2023-05-15T13:51:38.607Z,1.80
2023-05-15T13:57:00.880Z,2.10
2023-05-15T14:02:09.772Z,1.80
2023-05-15T14:07:14.991Z,2.45
2023-05-15T14:12:19.752Z,2.50
2023-05-15T14:17:24.996Z,1.85
2023-05-15T14:22:28.554Z,2.28
2023-05-15T14:27:32.320Z,1.98
2023-05-15T14:32:37.465Z,2.05
2023-05-15T14:37:41.034Z,2.13
2023-05-15T14:42:44.554Z,1.88
2023-05-15T14:47:49.575Z,2.53
2023-05-15T14:52:53.839Z,2.00
2023-05-15T14:57:58.946Z,2.30
2023-05-15T15:03:04.948Z,2.00
2023-05-15T15:08:10.137Z,1.95
2023-05-15T15:13:14.113Z,2.08
2023-05-15T15:18:20.698Z,2.15
2023-05-15T15:23:24.152Z,2.25
2023-05-15T15:28:29.643Z,2.20
2023-05-15T15:33:34.361Z,2.10
2023-05-15T15:38:41.856Z,2.08
2023-05-15T15:43:45.414Z,2.75
2023-05-15T15:48:50.137Z,1.77
2023-05-15T15:53:53.525Z,1.85
2023-05-15T15:58:56.845Z,2.05
2023-05-15T16:04:02.315Z,2.00
2023-05-15T16:09:05.769Z,2.42
2023-05-15T16:14:09.454Z,3.00
2023-05-15T16:19:14.519Z,2.30
2023-05-15T16:24:18.169Z,2.20
2023-05-15T16:29:24.009Z,2.10
2023-05-15T16:34:28.760Z,2.20
2023-05-15T16:39:38.564Z,2.25
2023-05-15T16:44:42.011Z,2.22
2023-05-15T16:49:49.155Z,2.20
2023-05-15T16:54:53.561Z,2.38
2023-05-15T16:59:57.062Z,2.25
2023-05-15T17:05:01.783Z,2.30
2023-05-15T17:10:06.170Z,2.53
2023-05-15T17:15:10.128Z,2.87
2023-05-15T17:20:15.230Z,2.70
2023-05-15T17:30:22.088Z,3.33
2023-05-15T17:35:27.584Z,2.60
2023-05-15T17:40:31.792Z,2.78
2023-05-15T17:45:35.285Z,2.85
2023-05-15T17:50:40.010Z,3.00
2023-05-15T17:55:44.301Z,3.78
2023-05-15T18:00:47.816Z,3.20
2023-05-15T18:05:52.782Z,2.75
2023-05-15T18:10:56.219Z,2.90
2023-05-15T18:16:56.880Z,2.88
2023-05-15T18:22:03.349Z,3.08
2023-05-15T18:27:07.207Z,3.10
2023-05-15T18:32:11.460Z,2.97
2023-05-15T18:37:16.790Z,3.08
2023-05-15T18:42:20.138Z,3.30
2023-05-15T18:47:23.987Z,3.55
2023-05-15T18:52:28.952Z,3.35
2023-05-15T18:57:32.384Z,3.08
2023-05-15T19:02:37.831Z,3.33
2023-05-15T19:07:42.775Z,4.30
2023-05-15T19:12:46.370Z,3.47
2023-05-15T19:17:49.867Z,3.50
2023-05-15T19:22:55.042Z,3.45
2023-05-15T19:27:58.600Z,3.33
2023-05-15T19:33:02.413Z,3.28
2023-05-15T19:38:07.598Z,3.65
2023-05-15T19:43:11.484Z,4.75
2023-05-15T19:48:15.013Z,4.22
2023-05-15T19:53:20.214Z,4.15
2023-05-15T20:03:33.309Z,3.97
2023-05-15T20:08:38.981Z,4.38
2023-05-15T20:13:42.396Z,4.53
2023-05-15T20:18:47.998Z,4.05
2023-05-15T20:23:52.721Z,4.32
2023-05-15T20:28:56.262Z,3.92
2023-05-15T20:34:00.786Z,3.85
2023-05-15T20:39:07.210Z,4.23
2023-05-15T20:44:10.973Z,3.65
2023-05-15T20:49:14.404Z,3.78
2023-05-15T20:54:19.245Z,4.00
2023-05-15T20:59:22.826Z,3.78
2023-05-15T21:04:26.381Z,3.75
2023-05-15T21:09:31.681Z,3.83
2023-05-15T21:14:35.593Z,3.55
2023-05-15T21:19:39.009Z,3.85
2023-05-15T21:24:43.709Z,4.13
2023-05-15T21:29:47.128Z,4.03
2023-05-15T21:34:50.534Z,3.88
2023-05-15T21:39:55.335Z,4.72
2023-05-15T21:44:59.494Z,4.38
2023-05-15T21:50:02.907Z,4.75
2023-05-15T21:55:09.003Z,4.57
2023-05-15T22:00:14.085Z,4.82
2023-05-15T22:05:21.134Z,4.65
2023-05-15T22:10:26.246Z,4.70
2023-05-15T22:15:30.062Z,4.88
2023-05-15T22:20:34.192Z,4.60
2023-05-15T22:25:39.340Z,5.10
2023-05-15T22:30:42.705Z,5.13
2023-05-15T22:35:46.279Z,4.40
2023-05-15T22:40:52.405Z,4.45
2023-05-15T22:45:56.211Z,5.28
2023-05-15T22:50:59.638Z,4.85
2023-05-15T22:56:04.468Z,5.78
2023-05-15T23:01:07.859Z,6.15
2023-05-15T23:06:16.475Z,5.82
2023-05-15T23:11:21.434Z,6.15
2023-05-15T23:16:25.632Z,6.53
2023-05-15T23:21:29.122Z,6.10
2023-05-15T23:26:33.776Z,6.43
2023-05-15T23:31:37.102Z,7.28
2023-05-15T23:36:40.767Z,6.10
2023-05-15T23:41:45.558Z,6.55
2023-05-15T23:46:48.969Z,7.03
2023-05-15T23:51:52.317Z,6.65
2023-05-15T23:56:56.923Z,7.47
